Time;durP1;ratioP1;P1;durP2;ratioP2;P2;SDS_P1;SDS_P2;PMS_P1;PMS_P2;Temp;Humidity;BMP_temperature;BMP_pressure;BME280_temperature;BME280_humidity;BME280_pressure;Samples;Min_cycle;Max_cycle;Signal;HPM_P1;HPM_P2
2021/10/10 00:00:49;;;;;;;4.65;3.38;;;4.20;99.90;;;;;;5071172;28;20063;-79
2021/10/10 00:03:15;;;;;;;3.38;3.08;;;4.10;99.90;;;;;;5038663;28;20510;-79
2021/10/10 00:05:41;;;;;;;4.90;3.22;;;4.10;99.90;;;;;;5052475;28;20124;-79
2021/10/10 00:08:07;;;;;;;3.78;3.17;;;4.10;99.90;;;;;;5070964;28;20036;-80
2021/10/10 00:10:33;;;;;;;3.47;2.63;;;4.10;99.90;;;;;;5063842;28;20033;-79
2021/10/10 00:12:59;;;;;;;4.65;2.90;;;4.10;99.90;;;;;;5063720;28;20063;-80
2021/10/10 00:15:25;;;;;;;;;;;4.10;99.90;;;;;;5051213;28;20044;-79
2021/10/10 00:17:51;;;;;;;3.10;2.78;;;4.00;99.90;;;;;;5067730;28;19950;-79
2021/10/10 00:20:17;;;;;;;3.65;3.33;;;4.00;99.90;;;;;;5070228;28;20486;-79
2021/10/10 00:22:43;;;;;;;8.65;3.95;;;3.90;99.90;;;;;;5064165;28;20036;-79
2021/10/10 00:25:10;;;;;;;3.20;2.78;;;3.90;99.90;;;;;;5063211;28;20486;-79
2021/10/10 00:27:37;;;;;;;2.92;2.65;;;3.90;99.90;;;;;;5062047;28;20120;-79
2021/10/10 00:30:07;;;;;;;11.30;3.97;;;3.90;99.90;;;;;;5063975;28;20043;-79
2021/10/10 00:32:33;;;;;;;18.42;5.45;;;3.80;99.90;;;;;;5070877;28;20045;-79
2021/10/10 00:34:59;;;;;;;5.32;3.95;;;3.90;99.90;;;;;;5056541;28;20144;-79
2021/10/10 00:37:25;;;;;;;4.60;3.05;;;3.80;99.90;;;;;;5054023;28;20040;-80
2021/10/10 00:39:51;;;;;;;6.47;4.53;;;3.70;99.90;;;;;;5058303;28;20045;-80
2021/10/10 00:42:17;;;;;;;;;;;4.20;99.90;;;;;;5079078;28;20375;-79
2021/10/10 00:44:46;;;;;;;6.00;3.45;;;3.80;99.90;;;;;;5066770;28;19978;-80
2021/10/10 00:47:13;;;;;;;4.07;2.75;;;3.70;99.90;;;;;;5064410;28;20060;-80
2021/10/10 00:49:40;;;;;;;7.78;4.65;;;3.70;99.90;;;;;;5054890;28;20041;-80
2021/10/10 00:52:07;;;;;;;2.58;2.13;;;3.70;99.90;;;;;;5073613;28;20040;-80
2021/10/10 00:54:33;;;;;;;5.85;4.32;;;3.70;99.90;;;;;;5065466;28;20047;-79
2021/10/10 00:57:00;;;;;;;;;;;3.70;99.90;;;;;;5065739;28;20052;-80
2021/10/10 00:59:27;;;;;;;5.20;4.00;;;3.70;99.90;;;;;;5066937;28;19974;-80
2021/10/10 01:01:53;;;;;;;6.70;2.70;;;3.60;99.90;;;;;;5061353;28;20061;-80
2021/10/10 01:04:19;;;;;;;5.05;2.72;;;3.60;99.90;;;;;;5067599;28;20124;-80
2021/10/10 01:06:46;;;;;;;4.38;3.70;;;3.70;99.90;;;;;;5067204;28;20401;-80
2021/10/10 01:09:16;;;;;;;2.85;2.55;;;3.70;99.90;;;;;;5051296;28;20445;-80
2021/10/10 01:11:43;;;;;;;5.82;4.80;;;3.60;99.90;;;;;;5048692;28;20040;-80
2021/10/10 01:14:12;;;;;;;9.15;3.85;;;3.60;99.90;;;;;;5064303;28;20044;-80
2021/10/10 01:16:38;;;;;;;4.70;3.00;;;3.50;99.90;;;;;;5056508;28;20080;-80
2021/10/10 01:19:06;;;;;;;4.53;2.45;;;3.50;99.90;;;;;;5061654;28;20063;-81
2021/10/10 01:21:32;;;;;;;3.53;2.97;;;3.50;99.90;;;;;;5062207;28;20032;-79
2021/10/10 01:23:57;;;;;;;6.72;4.32;;;3.50;99.90;;;;;;5055658;28;20463;-79
2021/10/10 01:26:23;;;;;;;4.80;3.05;;;3.50;99.90;;;;;;5055046;28;20033;-80
2021/10/10 01:28:50;;;;;;;4.80;3.55;;;3.50;99.90;;;;;;5058391;28;20068;-80
2021/10/10 01:31:15;;;;;;;5.57;3.75;;;3.70;99.90;;;;;;5070784;28;20075;-80
2021/10/10 01:33:45;;;;;;;4.45;4.05;;;3.40;99.90;;;;;;5042503;28;20076;-80
2021/10/10 01:36:12;;;;;;;3.08;2.85;;;3.40;99.90;;;;;;5059965;28;20090;-80
2021/10/10 01:38:39;;;;;;;4.50;3.08;;;3.40;99.90;;;;;;5055238;28;20051;-80
2021/10/10 01:41:09;;;;;;;4.43;4.00;;;3.30;99.90;;;;;;5060056;28;20083;-80
2021/10/10 01:43:36;;;;;;;7.53;4.15;;;3.40;99.90;;;;;;5058780;28;20486;-80
2021/10/10 01:46:02;;;;;;;4.22;3.83;;;3.30;99.90;;;;;;5054276;28;20040;-80
2021/10/10 01:48:27;;;;;;;;;;;3.40;99.90;;;;;;5066430;28;20033;-80
2021/10/10 01:50:53;;;;;;;4.80;3.72;;;3.30;99.90;;;;;;5050218;28;19967;-80
2021/10/10 01:53:19;;;;;;;4.88;4.25;;;3.30;99.90;;;;;;5050136;28;20048;-80
2021/10/10 01:55:44;;;;;;;3.42;3.13;;;3.30;99.90;;;;;;5035797;28;20373;-80
2021/10/10 01:58:11;;;;;;;5.43;2.85;;;3.20;99.90;;;;;;5056885;28;20044;-81
2021/10/10 02:00:38;;;;;;;5.95;3.70;;;3.20;99.90;;;;;;5065517;28;20466;-80
2021/10/10 02:03:04;;;;;;;5.13;4.10;;;3.20;99.90;;;;;;5055133;28;20101;-80
2021/10/10 02:05:30;;;;;;;7.93;2.97;;;3.20;99.90;;;;;;5048157;28;20405;-80
2021/10/10 02:07:56;;;;;;;7.28;4.45;;;3.20;99.90;;;;;;5038221;28;20037;-80
2021/10/10 02:10:21;;;;;;;;;;;3.10;99.90;;;;;;5057259;28;20033;-80
2021/10/10 02:12:47;;;;;;;4.10;2.92;;;3.10;99.90;;;;;;5059790;28;19916;-80
2021/10/10 02:15:13;;;;;;;3.33;2.47;;;3.10;99.90;;;;;;5056568;28;20052;-80
2021/10/10 02:17:39;;;;;;;6.55;3.47;;;3.00;99.90;;;;;;5067603;28;20089;-80
2021/10/10 02:20:06;;;;;;;5.30;3.08;;;3.00;99.90;;;;;;5063699;28;20477;-80
2021/10/10 02:22:32;;;;;;;5.50;2.63;;;3.00;99.90;;;;;;5053277;28;20051;-80
2021/10/10 02:24:58;;;;;;;;;;;3.00;99.90;;;;;;5072795;28;20040;-80
2021/10/10 02:27:24;;;;;;;4.63;4.22;;;3.30;99.90;;;;;;5048887;28;20390;-80
2021/10/10 02:29:50;;;;;;;2.65;2.22;;;3.00;99.90;;;;;;5062324;28;20049;-80
2021/10/10 02:32:15;;;;;;;7.07;3.15;;;2.90;99.90;;;;;;5051180;28;20498;-80
2021/10/10 02:34:41;;;;;;;3.22;2.92;;;2.90;99.90;;;;;;5068981;28;20045;-80
2021/10/10 02:37:08;;;;;;;2.80;2.53;;;2.90;99.90;;;;;;5058280;28;20052;-81
2021/10/10 02:39:34;;;;;;;6.22;2.50;;;2.90;99.90;;;;;;5064768;28;20457;-80
2021/10/10 02:42:00;;;;;;;3.55;2.78;;;2.90;99.90;;;;;;5037770;28;20044;-81
2021/10/10 02:44:26;;;;;;;5.53;5.03;;;2.90;99.90;;;;;;5058151;28;20036;-80
2021/10/10 02:46:52;;;;;;;3.70;3.30;;;2.90;99.90;;;;;;5054713;28;20045;-80
2021/10/10 02:49:18;;;;;;;9.25;2.90;;;2.90;99.90;;;;;;5058436;28;20078;-80
2021/10/10 02:51:43;;;;;;;5.65;4.70;;;2.90;99.90;;;;;;5065765;28;20082;-80
2021/10/10 02:54:09;;;;;;;3.72;3.08;;;2.90;99.90;;;;;;5036399;28;20072;-80
2021/10/10 02:56:35;;;;;;;6.63;3.28;;;3.20;99.90;;;;;;5049643;28;20072;-80
2021/10/10 02:59:00;;;;;;;6.00;4.70;;;2.90;99.90;;;;;;5065335;28;20048;-80
2021/10/10 03:01:26;;;;;;;3.72;3.28;;;2.90;99.90;;;;;;5038083;28;20060;-80
2021/10/10 03:03:52;;;;;;;4.18;3.53;;;2.90;99.90;;;;;;5071380;28;20097;-81
2021/10/10 03:06:18;;;;;;;12.52;5.50;;;2.80;99.90;;;;;;5055753;28;20512;-80
2021/10/10 03:08:43;;;;;;;5.07;3.35;;;2.90;99.90;;;;;;5011622;28;20037;-80
2021/10/10 03:11:09;;;;;;;5.15;4.75;;;2.80;99.90;;;;;;5077142;28;20048;-80
2021/10/10 03:13:35;;;;;;;5.60;4.25;;;2.80;99.90;;;;;;5055498;28;20047;-80
2021/10/10 03:16:01;;;;;;;4.47;3.85;;;2.80;99.90;;;;;;5035611;28;20370;-80
2021/10/10 03:18:27;;;;;;;3.38;3.03;;;2.80;99.90;;;;;;5049713;28;20044;-80
2021/10/10 03:20:53;;;;;;;4.15;3.75;;;2.80;99.90;;;;;;5060592;28;20116;-80
2021/10/10 03:23:18;;;;;;;3.08;2.70;;;2.80;99.90;;;;;;5063341;28;20076;-80
2021/10/10 03:25:44;;;;;;;4.10;3.60;;;2.80;99.90;;;;;;5067292;28;20397;-80
2021/10/10 03:28:10;;;;;;;5.40;3.60;;;2.90;99.90;;;;;;5038531;28;20039;-80
2021/10/10 03:30:36;;;;;;;3.75;3.45;;;2.70;99.90;;;;;;5039589;28;20037;-80
2021/10/10 03:33:01;;;;;;;4.68;3.65;;;2.60;99.90;;;;;;5063106;28;20075;-80
2021/10/10 03:35:27;;;;;;;3.47;2.88;;;2.60;99.90;;;;;;5064292;28;20048;-81
2021/10/10 03:37:53;;;;;;;3.92;3.63;;;2.50;99.90;;;;;;5061535;28;20084;-81
2021/10/10 03:40:18;;;;;;;3.22;2.72;;;2.50;99.90;;;;;;5044763;28;20525;-81
2021/10/10 03:42:45;;;;;;;4.75;4.15;;;2.50;99.90;;;;;;5060931;28;20037;-81
2021/10/10 03:45:10;;;;;;;4.28;3.42;;;2.60;99.90;;;;;;5037392;28;20068;-81
2021/10/10 03:47:36;;;;;;;6.15;4.18;;;2.90;99.90;;;;;;5054937;28;20482;-81
2021/10/10 03:50:03;;;;;;;3.55;2.53;;;2.70;99.90;;;;;;5077636;28;20028;-81
2021/10/10 03:52:29;;;;;;;4.70;3.67;;;2.60;99.90;;;;;;5064751;28;20489;-81
2021/10/10 03:57:23;;;;;;;3.53;3.22;;;3.30;99.90;;;;;;5051710;28;20059;-81
2021/10/10 03:59:55;;;;;;;10.55;3.50;;;3.20;99.90;;;;;;5064769;28;20036;-80
2021/10/10 04:02:21;;;;;;;4.22;3.70;;;3.20;99.90;;;;;;5059070;28;20062;-80
2021/10/10 04:04:47;;;;;;;3.88;3.40;;;2.70;99.90;;;;;;5049873;28;20036;-80
2021/10/10 04:07:15;;;;;;;5.78;3.45;;;3.10;99.90;;;;;;5055210;28;20540;-80
2021/10/10 04:09:41;;;;;;;2.80;2.38;;;2.70;99.90;;;;;;5037073;28;20036;-80
2021/10/10 04:12:06;;;;;;;;;;;2.70;99.90;;;;;;5063043;28;20037;-79
2021/10/10 04:14:32;;;;;;;6.50;3.97;;;2.50;99.90;;;;;;5055390;28;19924;-80
2021/10/10 04:16:58;;;;;;;4.28;3.33;;;2.90;99.90;;;;;;5053035;28;20040;-80
2021/10/10 04:19:23;;;;;;;5.10;4.20;;;2.70;99.90;;;;;;5035603;28;20149;-80
2021/10/10 04:21:49;;;;;;;1.67;1.58;;;2.70;99.90;;;;;;5050881;28;20056;-80
2021/10/10 04:24:15;;;;;;;13.75;4.43;;;2.70;99.90;;;;;;5033027;28;20183;-81
2021/10/10 04:26:40;;;;;;;4.40;3.67;;;2.70;99.90;;;;;;5047815;28;20068;-81
2021/10/10 04:29:06;;;;;;;5.32;4.07;;;2.60;99.90;;;;;;5039190;28;20033;-81
2021/10/10 04:31:32;;;;;;;6.38;2.97;;;2.90;99.90;;;;;;5055216;28;20075;-81
2021/10/10 04:33:57;;;;;;;6.40;4.38;;;2.30;99.90;;;;;;5063147;28;20398;-81
2021/10/10 04:36:23;;;;;;;3.85;3.22;;;2.70;99.90;;;;;;5050902;28;20143;-81
2021/10/10 04:38:49;;;;;;;4.75;3.42;;;2.60;99.90;;;;;;5061396;28;20056;-80
2021/10/10 04:41:14;;;;;;;7.00;3.00;;;2.70;99.90;;;;;;5042632;28;20041;-81
2021/10/10 04:43:40;;;;;;;5.35;3.92;;;2.20;99.90;;;;;;5048643;28;20041;-81
2021/10/10 04:46:06;;;;;;;4.65;3.08;;;2.60;99.90;;;;;;5063142;28;20037;-81
2021/10/10 04:48:31;;;;;;;3.03;2.78;;;2.50;99.90;;;;;;5057453;28;20171;-81
2021/10/10 04:50:57;;;;;;;4.68;2.10;;;2.60;99.90;;;;;;5045851;28;20041;-80
2021/10/10 04:53:23;;;;;;;5.35;3.13;;;3.00;99.90;;;;;;5041181;28;20425;-81
2021/10/10 04:55:49;;;;;;;7.65;4.03;;;2.80;99.90;;;;;;5054162;28;20285;-81
2021/10/10 04:58:14;;;;;;;3.85;3.10;;;2.70;99.90;;;;;;5048275;28;20056;-80
2021/10/10 05:00:40;;;;;;;3.63;3.05;;;2.70;99.90;;;;;;5052876;28;20573;-81
2021/10/10 05:03:06;;;;;;;2.10;2.00;;;2.50;99.90;;;;;;5022731;28;20143;-80
2021/10/10 05:05:31;;;;;;;5.88;4.65;;;2.60;99.90;;;;;;5055334;28;20084;-81
2021/10/10 05:07:57;;;;;;;4.15;3.03;;;2.30;99.90;;;;;;5050726;28;20090;-81
2021/10/10 05:10:23;;;;;;;4.88;4.40;;;2.40;99.90;;;;;;5057481;28;20041;-81
2021/10/10 05:12:48;;;;;;;7.30;3.05;;;2.70;99.90;;;;;;5040838;28;20106;-81
2021/10/10 05:15:14;;;;;;;5.90;4.10;;;2.80;99.90;;;;;;5045817;28;20079;-81
2021/10/10 05:17:40;;;;;;;8.45;4.00;;;2.40;99.90;;;;;;5047310;28;20120;-81
2021/10/10 05:20:07;;;;;;;4.65;3.95;;;2.30;99.90;;;;;;5050646;28;20102;-81
2021/10/10 05:22:33;;;;;;;3.90;3.60;;;2.30;99.90;;;;;;5053418;28;20043;-81
2021/10/10 05:24:59;;;;;;;10.48;2.92;;;2.50;99.90;;;;;;5062328;28;20025;-81
2021/10/10 05:27:25;;;;;;;3.22;2.95;;;2.60;99.90;;;;;;5040994;28;20448;-81
2021/10/10 05:29:51;;;;;;;3.65;2.70;;;2.50;99.90;;;;;;5065868;28;20125;-80
2021/10/10 05:32:16;;;;;;;5.28;3.92;;;2.60;99.90;;;;;;5045099;28;20127;-80
2021/10/10 05:34:42;;;;;;;3.72;2.65;;;2.10;99.90;;;;;;5044860;28;20048;-80
2021/10/10 05:37:08;;;;;;;4.20;3.50;;;2.70;99.90;;;;;;5061132;28;20047;-80
2021/10/10 05:39:34;;;;;;;8.77;6.38;;;2.30;99.90;;;;;;5068878;28;20101;-80
2021/10/10 05:41:59;;;;;;;5.45;2.40;;;2.70;99.90;;;;;;5050464;28;20097;-81
2021/10/10 05:44:26;;;;;;;5.97;4.43;;;2.40;99.90;;;;;;5069816;28;20048;-80
2021/10/10 05:46:51;;;;;;;4.95;4.15;;;2.30;99.90;;;;;;5064204;28;20473;-80
2021/10/10 05:49:17;;;;;;;3.67;3.33;;;2.50;99.90;;;;;;5046729;28;20134;-81
2021/10/10 05:51:46;;;;;;;3.28;2.97;;;2.90;99.90;;;;;;5048585;28;20497;-80
2021/10/10 05:54:14;;;;;;;3.53;3.22;;;2.70;99.90;;;;;;5055620;28;20115;-80
2021/10/10 05:56:40;;;;;;;6.88;4.03;;;3.30;99.90;;;;;;5051952;28;20044;-80
2021/10/10 05:59:11;;;;;;;5.45;3.42;;;2.60;99.90;;;;;;5061511;28;20486;-80
2021/10/10 06:01:37;;;;;;;6.60;3.40;;;3.00;99.90;;;;;;5020009;28;20132;-80
2021/10/10 06:04:03;;;;;;;5.18;4.78;;;2.40;99.90;;;;;;5049094;28;20514;-80
2021/10/10 06:06:29;;;;;;;5.18;3.45;;;2.70;99.90;;;;;;5054388;28;20390;-80
2021/10/10 06:08:55;;;;;;;9.20;5.10;;;2.90;99.90;;;;;;5036772;28;20048;-78
2021/10/10 06:11:21;;;;;;;4.13;3.72;;;3.00;99.90;;;;;;5040107;28;20040;-78
2021/10/10 06:13:47;;;;;;;5.75;4.70;;;2.90;99.90;;;;;;5052610;28;20040;-80
2021/10/10 06:16:13;;;;;;;;;;;3.20;99.90;;;;;;5061009;28;20044;-80
2021/10/10 06:18:39;;;;;;;6.55;2.80;;;3.60;99.90;;;;;;5058335;28;19931;-80
2021/10/10 06:21:04;;;;;;;7.10;4.00;;;3.40;99.90;;;;;;5056803;28;20049;-80
2021/10/10 06:23:30;;;;;;;4.43;3.88;;;3.20;99.90;;;;;;5044586;28;20045;-80
2021/10/10 06:25:56;;;;;;;6.03;4.68;;;3.70;99.90;;;;;;5068664;28;20044;-79
2021/10/10 06:28:22;;;;;;;4.20;3.80;;;3.40;99.90;;;;;;5063798;28;20485;-79
2021/10/10 06:30:48;;;;;;;9.52;4.72;;;3.60;99.90;;;;;;5073261;28;20036;-80
2021/10/10 06:33:14;;;;;;;8.32;6.38;;;3.60;99.90;;;;;;5079940;28;20028;-82
2021/10/10 06:35:40;;;;;;;6.93;4.70;;;4.30;99.90;;;;;;5038666;28;20123;-82
2021/10/10 06:38:07;;;;;;;4.25;3.38;;;4.00;99.90;;;;;;5039977;28;20044;-79
2021/10/10 06:40:33;;;;;;;7.30;4.88;;;4.30;99.90;;;;;;5052912;28;20036;-79
2021/10/10 06:42:58;;;;;;;13.40;6.35;;;4.30;99.90;;;;;;5047293;28;20119;-80
2021/10/10 06:45:24;;;;;;;3.83;3.53;;;4.80;99.90;;;;;;5060152;28;20041;-80
2021/10/10 06:47:50;;;;;;;9.15;5.07;;;4.70;99.90;;;;;;5050631;28;20059;-80
2021/10/10 06:50:15;;;;;;;11.82;4.63;;;5.20;99.90;;;;;;5061826;28;20486;-80
2021/10/10 06:52:41;;;;;;;10.20;4.35;;;5.00;99.90;;;;;;5054088;28;20084;-80
2021/10/10 06:55:07;;;;;;;4.55;4.15;;;5.10;99.90;;;;;;5054623;28;20033;-80
2021/10/10 06:57:33;;;;;;;;;;;4.80;99.90;;;;;;5061216;28;20041;-80
2021/10/10 07:00:00;;;;;;;6.53;4.45;;;4.90;99.90;;;;;;5068749;28;20000;-80
2021/10/10 07:02:27;;;;;;;6.15;5.35;;;5.20;99.90;;;;;;5056950;28;20060;-80
2021/10/10 07:04:53;;;;;;;9.18;4.28;;;5.30;99.90;;;;;;5061750;28;20032;-80
2021/10/10 07:07:18;;;;;;;6.47;5.13;;;5.00;99.90;;;;;;5043867;28;20037;-80
2021/10/10 07:09:44;;;;;;;5.25;3.75;;;5.20;99.90;;;;;;5061149;28;20040;-81
2021/10/10 07:12:10;;;;;;;6.60;4.70;;;5.40;99.90;;;;;;5033368;28;20037;-81
2021/10/10 07:14:36;;;;;;;12.23;4.63;;;5.10;99.90;;;;;;5054043;28;20055;-80
2021/10/10 07:17:01;;;;;;;5.07;4.28;;;5.50;99.90;;;;;;5047452;28;20503;-81
2021/10/10 07:19:36;;;;;;;11.32;4.75;;;5.30;99.90;;;;;;5058740;28;20037;-80
2021/10/10 07:22:13;;;;;;;6.35;5.47;;;5.30;99.90;;;;;;5063989;28;20040;-80
2021/10/10 07:24:55;;;;;;;9.60;4.03;;;5.50;99.90;;;;;;5051511;28;20048;-80
2021/10/10 07:27:20;;;;;;;6.68;3.88;;;5.60;99.90;;;;;;5060526;28;20315;-80
2021/10/10 07:29:46;;;;;;;8.23;4.60;;;6.00;99.90;;;;;;5060185;28;20037;-80
2021/10/10 07:32:12;;;;;;;4.90;3.60;;;5.90;99.90;;;;;;5065747;28;20057;-80
2021/10/10 07:34:38;;;;;;;9.40;4.40;;;5.70;99.90;;;;;;5060242;28;20118;-81
2021/10/10 07:37:04;;;;;;;6.35;5.00;;;5.90;99.90;;;;;;5031568;28;20044;-80
2021/10/10 07:39:29;;;;;;;9.73;6.38;;;5.90;99.90;;;;;;5075140;28;20051;-80
2021/10/10 07:41:55;;;;;;;5.97;3.80;;;6.30;99.90;;;;;;5063536;28;20044;-81
2021/10/10 07:44:23;;;;;;;4.20;3.67;;;;;;;;;;5064411;28;20123;-80
2021/10/10 07:46:56;;;;;;;7.75;5.50;;;;;;;;;;5065209;28;20045;-80
2021/10/10 07:49:23;;;;;;;7.18;5.80;;;;;;;;;;5058559;28;20058;-80
2021/10/10 07:51:48;;;;;;;;;;;6.50;99.90;;;;;;5052773;28;20045;-79
2021/10/10 07:54:15;;;;;;;6.70;3.97;;;6.50;99.90;;;;;;5056561;28;19916;-82
2021/10/10 07:56:43;;;;;;;7.78;5.82;;;6.60;99.90;;;;;;5054867;28;20059;-79
2021/10/10 07:59:09;;;;;;;6.85;5.47;;;6.70;99.90;;;;;;5059342;28;20044;-79
2021/10/10 08:01:34;;;;;;;10.38;5.28;;;6.80;99.90;;;;;;5058128;28;20458;-79
2021/10/10 08:04:00;;;;;;;4.85;4.03;;;6.80;99.90;;;;;;5062994;28;20113;-81
2021/10/10 08:06:26;;;;;;;13.02;4.43;;;7.00;99.90;;;;;;5052311;28;20090;-81
2021/10/10 08:08:51;;;;;;;8.45;5.55;;;7.10;99.90;;;;;;5063973;28;20040;-81
2021/10/10 08:11:17;;;;;;;9.18;5.35;;;7.20;99.90;;;;;;5055184;28;20115;-81
2021/10/10 08:13:43;;;;;;;7.57;6.28;;;7.40;99.90;;;;;;5054990;28;20554;-81
2021/10/10 08:16:09;;;;;;;6.97;6.35;;;7.50;99.90;;;;;;5079931;28;20085;-81
2021/10/10 08:18:34;;;;;;;7.28;5.22;;;7.80;99.90;;;;;;5047843;28;20044;-81
2021/10/10 08:21:00;;;;;;;4.93;4.43;;;7.90;99.90;;;;;;5064603;28;20105;-82
2021/10/10 08:23:26;;;;;;;16.45;5.47;;;8.00;99.90;;;;;;5067058;28;20049;-82
2021/10/10 08:25:51;;;;;;;5.97;5.40;;;8.20;99.90;;;;;;5061143;28;20120;-82
2021/10/10 08:28:17;;;;;;;10.15;5.93;;;8.40;99.90;;;;;;5040121;28;20129;-82
2021/10/10 08:30:43;;;;;;;10.65;7.10;;;8.60;99.90;;;;;;5050968;28;20048;-82
2021/10/10 08:33:08;;;;;;;8.73;6.38;;;8.80;99.90;;;;;;5057579;28;20048;-82
2021/10/10 08:35:34;;;;;;;7.38;6.57;;;8.90;99.90;;;;;;5066595;28;20040;-81
2021/10/10 08:38:00;;;;;;;7.93;5.47;;;9.00;99.90;;;;;;5058991;28;20064;-81
2021/10/10 08:40:25;;;;;;;13.77;6.30;;;9.10;99.90;;;;;;5059196;28;20072;-81
2021/10/10 08:42:57;;;;;;;9.05;7.13;;;9.00;99.90;;;;;;5062892;28;20036;-81
2021/10/10 08:45:25;;;;;;;10.88;7.20;;;9.10;99.90;;;;;;5055108;28;20124;-81
2021/10/10 08:47:53;;;;;;;10.38;5.55;;;9.10;99.90;;;;;;5047919;28;20033;-81
2021/10/10 08:50:25;;;;;;;9.75;5.45;;;9.10;99.90;;;;;;5059177;28;20458;-82
2021/10/10 08:52:52;;;;;;;7.60;6.32;;;9.20;99.90;;;;;;5063008;28;20067;-82
2021/10/10 08:55:19;;;;;;;9.32;5.97;;;9.20;99.90;;;;;;5059592;28;20094;-82
2021/10/10 08:57:46;;;;;;;13.85;6.72;;;9.20;99.90;;;;;;5065376;28;20041;-82
2021/10/10 09:00:34;;;;;;;7.13;5.03;;;9.10;99.90;;;;;;5036301;28;20115;-82
2021/10/10 09:03:00;;;;;;;9.77;5.57;;;9.10;99.90;;;;;;5060916;28;20049;-82
2021/10/10 09:05:26;;;;;;;14.07;6.65;;;9.10;99.90;;;;;;5064617;28;20049;-81
2021/10/10 09:07:54;;;;;;;13.60;6.70;;;9.00;99.90;;;;;;5061979;28;20494;-81
2021/10/10 09:10:31;;;;;;;9.70;5.72;;;8.90;99.90;;;;;;5047788;28;20044;-82
2021/10/10 09:13:10;;;;;;;8.38;5.95;;;8.90;99.90;;;;;;5060172;28;20452;-82
2021/10/10 09:15:42;;;;;;;10.55;6.82;;;8.80;99.90;;;;;;5068467;28;20446;-81
2021/10/10 09:18:10;;;;;;;9.18;6.07;;;8.70;99.90;;;;;;5072658;28;20488;-82
2021/10/10 09:20:38;;;;;;;9.85;7.07;;;8.70;99.90;;;;;;5062669;28;20122;-82
2021/10/10 09:23:10;;;;;;;13.02;7.80;;;8.80;99.90;;;;;;5067409;28;20124;-82
2021/10/10 09:25:46;;;;;;;10.07;7.00;;;8.70;99.90;;;;;;5063855;28;20056;-82
2021/10/10 09:28:25;;;;;;;11.38;6.20;;;8.80;99.90;;;;;;5051263;28;20129;-82
2021/10/10 09:30:57;;;;;;;11.95;6.82;;;8.90;99.90;;;;;;5065733;28;20041;-82
2021/10/10 09:33:52;;;;;;;15.07;7.00;;;9.10;99.90;;;;;;5067523;28;20045;-82
2021/10/10 09:36:25;;;;;;;10.73;7.47;;;9.20;99.90;;;;;;5070232;28;20063;-82
2021/10/10 09:39:11;;;;;;;9.55;7.07;;;9.40;99.90;;;;;;5062404;28;20048;-82
2021/10/10 09:41:45;;;;;;;9.98;5.68;;;9.60;99.90;;;;;;5060094;28;20084;-82
2021/10/10 09:46:43;;;;;;;10.77;7.25;;;9.90;99.90;;;;;;5057707;28;20053;-82
2021/10/10 09:49:24;;;;;;;11.75;7.03;;;10.10;99.90;;;;;;5048357;28;20048;-82
2021/10/10 09:51:51;;;;;;;8.70;6.40;;;10.20;99.90;;;;;;5072062;28;20489;-82
2021/10/10 09:54:17;;;;;;;12.43;8.15;;;10.30;99.90;;;;;;5057046;28;20059;-82
2021/10/10 09:57:03;;;;;;;12.63;8.15;;;10.50;99.90;;;;;;5060880;28;20045;-82
2021/10/10 09:59:29;;;;;;;9.38;7.18;;;10.60;99.90;;;;;;5055237;28;20124;-82
2021/10/10 10:01:55;;;;;;;13.30;8.82;;;10.70;99.90;;;;;;5060513;28;20087;-82
2021/10/10 10:04:21;;;;;;;7.70;6.18;;;10.80;99.90;;;;;;5053558;28;20084;-82
2021/10/10 10:06:47;;;;;;;9.98;6.32;;;10.90;99.90;;;;;;5051841;28;20044;-82
2021/10/10 10:09:13;;;;;;;14.25;8.00;;;11.00;99.90;;;;;;5056031;28;20398;-81
2021/10/10 10:11:43;;;;;;;;;;;11.20;99.90;;;;;;5065155;28;20394;-81
2021/10/10 10:14:11;;;;;;;14.50;8.10;;;11.20;99.90;;;;;;5062500;28;19923;-81
2021/10/10 10:16:43;;;;;;;18.98;7.97;;;11.30;99.90;;;;;;5061257;28;20442;-82
2021/10/10 10:19:11;;;;;;;10.13;6.45;;;11.40;99.90;;;;;;5067777;28;20391;-81
2021/10/10 10:21:37;;;;;;;14.02;9.80;;;11.50;99.90;;;;;;5037058;28;20045;-81
2021/10/10 10:24:03;;;;;;;;;;;11.60;99.90;;;;;;5061263;28;20048;-82
2021/10/10 10:26:34;;;;;;;21.95;8.00;;;11.70;99.90;;;;;;5067395;28;19916;-81
2021/10/10 10:29:03;;;;;;;9.68;8.40;;;11.80;99.90;;;;;;5070044;28;20119;-81
2021/10/10 10:31:31;;;;;;;10.35;6.07;;;11.90;99.90;;;;;;5065991;28;20487;-81
2021/10/10 10:34:35;;;;;;;7.10;5.28;;;12.00;99.90;;;;;;5047573;28;20066;-81
2021/10/10 10:37:04;;;;;;;11.35;7.80;;;12.20;99.90;;;;;;5025762;28;20045;-80
2021/10/10 10:39:49;;;;;;;12.50;7.38;;;12.30;99.90;;;;;;5027374;28;20171;-79
2021/10/10 10:42:36;;;;;;;11.50;8.35;;;12.30;99.90;;;;;;5041264;28;20049;-79
2021/10/10 10:45:20;;;;;;;16.58;8.23;;;12.40;99.90;;;;;;5060435;28;20041;-80
2021/10/10 10:47:47;;;;;;;7.50;6.63;;;12.50;99.90;;;;;;5048442;28;20044;-80
2021/10/10 10:50:21;;;;;;;14.95;8.73;;;12.60;99.90;;;;;;5064843;28;20055;-80
2021/10/10 10:52:59;;;;;;;14.15;7.45;;;12.70;99.90;;;;;;5067228;28;20056;-81
2021/10/10 10:55:38;;;;;;;12.40;7.00;;;12.80;99.90;;;;;;5066266;28;20059;-80
2021/10/10 10:58:12;;;;;;;10.18;7.28;;;12.90;99.90;;;;;;5065103;28;20042;-80
2021/10/10 11:00:46;;;;;;;14.23;7.53;;;12.90;99.90;;;;;;5058238;28;20073;-80
2021/10/10 11:03:21;;;;;;;15.20;8.30;;;12.90;99.90;;;;;;5063004;28;20405;-80
2021/10/10 11:05:52;;;;;;;8.95;7.50;;;13.00;99.90;;;;;;5051701;28;20044;-79
2021/10/10 11:08:30;;;;;;;22.85;9.40;;;13.10;99.90;;;;;;5054685;28;20119;-79
2021/10/10 11:11:04;;;;;;;23.45;8.10;;;13.20;99.90;;;;;;5063167;28;20036;-79
2021/10/10 11:13:44;;;;;;;14.82;9.70;;;13.30;99.90;;;;;;5065286;28;20040;-77
2021/10/10 11:16:28;;;;;;;10.35;7.20;;;13.40;99.90;;;;;;5075541;28;20044;-80
2021/10/10 11:18:57;;;;;;;18.27;8.27;;;13.50;99.90;;;;;;5071973;28;20041;-77
2021/10/10 11:21:30;;;;;;;15.85;9.07;;;13.60;99.90;;;;;;5058075;28;20041;-77
2021/10/10 11:23:59;;;;;;;15.93;9.75;;;13.70;99.90;;;;;;5065012;28;20041;-80
2021/10/10 11:26:26;;;;;;;16.73;7.05;;;13.80;99.90;;;;;;5057220;28;20041;-79
2021/10/10 11:29:00;;;;;;;16.42;9.80;;;13.90;99.90;;;;;;5043424;28;20123;-76
2021/10/10 11:31:28;;;;;;;15.77;7.80;;;13.90;99.90;;;;;;5060125;28;20056;-78
2021/10/10 11:34:06;;;;;;;13.05;7.30;;;14.00;99.90;;;;;;5050040;28;20044;-79
2021/10/10 11:36:37;;;;;;;15.70;8.43;;;14.10;99.90;;;;;;5057373;28;20044;-80
2021/10/10 11:39:07;;;;;;;11.90;7.18;;;14.10;99.90;;;;;;5060696;28;20045;-77
2021/10/10 11:41:38;;;;;;;11.07;9.05;;;14.20;99.90;;;;;;5060779;28;20041;-78
2021/10/10 11:44:07;;;;;;;18.23;7.38;;;14.30;99.90;;;;;;5061300;28;20162;-79
2021/10/10 11:46:40;;;;;;;15.75;9.15;;;14.30;99.90;;;;;;5062838;28;20053;-79
2021/10/10 11:49:23;;;;;;;12.90;7.43;;;14.40;99.90;;;;;;5060261;28;20040;-82
2021/10/10 11:51:50;;;;;;;22.35;9.75;;;14.40;99.90;;;;;;5048967;28;20049;-79
2021/10/10 11:54:40;;;;;;;19.77;8.85;;;14.50;99.90;;;;;;5049223;28;20121;-79
2021/10/10 11:57:21;;;;;;;22.65;9.57;;;14.60;99.90;;;;;;5049134;28;20406;-81
2021/10/10 11:59:52;;;;;;;15.10;8.40;;;14.80;99.90;;;;;;5068512;28;20044;-78
2021/10/10 12:02:18;;;;;;;14.40;9.20;;;14.80;99.90;;;;;;5061232;28;20052;-78
2021/10/10 12:04:47;;;;;;;18.52;10.43;;;14.90;99.90;;;;;;5064155;28;20049;-78
2021/10/10 12:07:13;;;;;;;14.80;9.07;;;15.00;99.90;;;;;;5058943;28;20398;-80
2021/10/10 12:09:51;;;;;;;13.93;8.68;;;15.00;99.90;;;;;;5051723;28;20052;-79
2021/10/10 12:12:19;;;;;;;16.77;10.25;;;15.00;99.90;;;;;;5048720;28;20402;-79
2021/10/10 12:14:47;;;;;;;15.57;8.63;;;15.10;99.90;;;;;;5061808;28;20052;-80
2021/10/10 12:17:39;;;;;;;13.35;8.57;;;15.20;99.90;;;;;;5065473;28;20070;-80
2021/10/10 12:20:17;;;;;;;16.65;7.78;;;15.30;99.90;;;;;;5052017;28;20116;-80
2021/10/10 12:22:45;;;;;;;18.67;10.40;;;15.40;99.90;;;;;;5052809;28;20066;-81
2021/10/10 12:25:31;;;;;;;12.13;8.00;;;15.40;99.90;;;;;;5059710;28;20053;-82
2021/10/10 12:28:12;;;;;;;15.88;9.25;;;15.40;99.90;;;;;;5051765;28;20076;-80
2021/10/10 12:30:57;;;;;;;23.85;9.75;;;15.50;99.90;;;;;;5053721;28;20044;-80
2021/10/10 12:33:34;;;;;;;15.52;9.90;;;15.50;99.90;;;;;;5057941;28;20090;-79
2021/10/10 12:36:08;;;;;;;13.60;9.25;;;15.60;99.90;;;;;;5056364;28;20056;-79
2021/10/10 12:38:46;;;;;;;19.73;8.98;;;15.90;99.90;;;;;;5066523;28;20071;-79
2021/10/10 12:41:28;;;;;;;21.13;10.25;;;16.00;99.90;;;;;;5037367;28;20037;-81
2021/10/10 12:43:56;;;;;;;18.25;10.38;;;15.90;99.90;;;;;;5059049;28;20080;-79
2021/10/10 12:46:25;;;;;;;14.95;9.40;;;15.80;99.90;;;;;;5062028;28;20371;-82
2021/10/10 12:49:04;;;;;;;17.15;9.50;;;15.50;99.90;;;;;;5041511;28;20045;-79
2021/10/10 12:51:33;;;;;;;14.60;9.13;;;15.30;99.90;;;;;;5050327;28;20041;-81
2021/10/10 12:54:20;;;;;;;14.10;8.02;;;15.30;99.90;;;;;;5056749;28;20117;-83
2021/10/10 12:56:59;;;;;;;;;;;15.20;99.90;;;;;;5069276;28;20055;-81
2021/10/10 12:59:26;;;;;;;11.95;7.68;;;15.20;99.90;;;;;;5046143;28;19927;-82
2021/10/10 13:01:51;;;;;;;;;;;15.10;99.90;;;;;;5052892;28;20057;-82
2021/10/10 13:04:17;;;;;;;17.27;7.85;;;15.20;99.90;;;;;;5059102;28;20598;-80
2021/10/10 13:06:43;;;;;;;;;;;15.30;99.90;;;;;;5041039;28;20048;-80